createdAt,value
2023-02-19T00:01:49.933Z,4.20
2023-02-19T00:04:19.310Z,4.23
2023-02-19T00:06:47.689Z,4.26
2023-02-19T00:09:17.304Z,4.24
2023-02-19T00:11:47.519Z,4.29
2023-02-19T00:14:17.447Z,4.29
2023-02-19T00:16:45.059Z,4.36
2023-02-19T00:19:14.562Z,4.38
2023-02-19T00:21:42.297Z,4.22
2023-02-19T00:24:12.948Z,4.28
2023-02-19T00:26:41.358Z,4.33
2023-02-19T00:29:13.144Z,4.31
2023-02-19T00:31:41.082Z,4.37
2023-02-19T00:34:09.842Z,4.33
2023-02-19T00:36:39.406Z,4.39
2023-02-19T00:39:08.238Z,4.45
2023-02-19T00:41:36.138Z,4.40
2023-02-19T00:44:05.992Z,4.36
2023-02-19T00:46:36.479Z,4.32
2023-02-19T00:49:05.076Z,4.31
2023-02-19T00:51:34.803Z,4.17
2023-02-19T00:54:02.745Z,4.17
2023-02-19T00:56:30.543Z,4.13
2023-02-19T00:58:58.532Z,4.12
2023-02-19T01:01:26.137Z,4.06
2023-02-19T01:03:55.066Z,4.09
2023-02-19T01:06:23.108Z,4.05
2023-02-19T01:08:51.008Z,4.04
2023-02-19T01:11:20.210Z,3.99
2023-02-19T01:13:47.794Z,4.09
2023-02-19T01:16:18.160Z,4.14
2023-02-19T01:18:46.333Z,4.14
2023-02-19T01:21:18.996Z,4.16
2023-02-19T01:23:47.857Z,4.15
2023-02-19T01:26:17.369Z,4.09
2023-02-19T01:28:45.570Z,4.06
2023-02-19T01:31:15.086Z,4.10
2023-02-19T01:33:45.952Z,4.13
2023-02-19T01:36:15.374Z,4.07
2023-02-19T01:38:43.725Z,4.07
2023-02-19T01:41:13.929Z,4.11
2023-02-19T01:44:00.827Z,4.18
2023-02-19T01:46:29.563Z,4.18
2023-02-19T01:49:00.179Z,4.13
2023-02-19T01:51:31.706Z,4.20
2023-02-19T01:54:03.556Z,4.25
2023-02-19T01:56:33.025Z,4.24
2023-02-19T01:59:02.262Z,4.24
2023-02-19T02:01:29.879Z,4.27
2023-02-19T02:03:57.591Z,4.26
2023-02-19T02:06:28.730Z,4.27
2023-02-19T02:09:16.394Z,4.28
2023-02-19T02:11:48.714Z,4.22
2023-02-19T02:14:18.307Z,4.24
2023-02-19T02:16:55.617Z,4.25
2023-02-19T02:19:44.197Z,4.22
2023-02-19T02:22:19.108Z,4.20
2023-02-19T02:25:33.057Z,4.20
2023-02-19T02:28:17.985Z,4.17
2023-02-19T02:30:49.680Z,4.17
2023-02-19T02:33:27.068Z,4.17
2023-02-19T02:35:59.237Z,4.16
2023-02-19T02:38:30.967Z,4.15
2023-02-19T02:40:59.111Z,4.22
2023-02-19T02:43:27.001Z,4.22
2023-02-19T02:45:56.663Z,4.24
2023-02-19T02:48:36.678Z,4.19
2023-02-19T02:51:10.853Z,4.15
2023-02-19T02:54:07.774Z,4.12
2023-02-19T02:56:36.057Z,4.08
2023-02-19T02:59:08.585Z,4.04
2023-02-19T03:02:01.538Z,3.99
2023-02-19T03:04:34.592Z,4.01
2023-02-19T03:07:08.798Z,4.00
2023-02-19T03:09:43.061Z,3.97
2023-02-19T03:12:32.878Z,3.96
2023-02-19T03:15:25.938Z,3.96
2023-02-19T03:18:17.279Z,3.91
2023-02-19T03:20:49.269Z,3.90
2023-02-19T03:23:19.132Z,3.81
2023-02-19T03:26:05.721Z,3.78
2023-02-19T03:29:11.948Z,3.71
2023-02-19T03:31:44.660Z,3.70
2023-02-19T03:34:20.001Z,3.77
2023-02-19T03:36:54.753Z,3.68
2023-02-19T03:39:24.678Z,3.64
2023-02-19T03:41:59.147Z,3.67
2023-02-19T03:44:35.916Z,3.67
2023-02-19T03:47:08.216Z,3.67
2023-02-19T03:49:48.858Z,3.69
2023-02-19T03:52:23.330Z,3.64
2023-02-19T03:54:57.593Z,3.65
2023-02-19T03:57:32.460Z,3.63
2023-02-19T04:00:06.763Z,3.67
2023-02-19T04:02:44.544Z,3.61
2023-02-19T04:05:17.582Z,3.62
2023-02-19T04:07:48.702Z,3.52
2023-02-19T04:10:21.177Z,3.49
2023-02-19T04:12:57.537Z,3.46
2023-02-19T04:15:30.214Z,3.52
2023-02-19T04:18:01.472Z,3.49
2023-02-19T04:20:35.008Z,3.47
2023-02-19T04:23:02.573Z,3.48
2023-02-19T04:25:31.409Z,3.39
2023-02-19T04:27:59.581Z,3.22
2023-02-19T04:30:27.423Z,3.21
2023-02-19T04:32:55.102Z,3.12
2023-02-19T04:35:22.665Z,3.07
2023-02-19T04:37:51.704Z,3.01
2023-02-19T04:40:19.571Z,2.93
2023-02-19T04:42:47.078Z,2.92
2023-02-19T04:45:14.574Z,2.83
2023-02-19T04:47:42.096Z,2.87
2023-02-19T04:50:09.740Z,2.86
2023-02-19T04:52:37.365Z,2.81
2023-02-19T04:55:07.316Z,2.81
2023-02-19T04:57:35.563Z,2.80
2023-02-19T05:00:04.154Z,2.85
2023-02-19T05:02:31.710Z,2.86
2023-02-19T05:04:59.276Z,2.80
2023-02-19T05:07:26.916Z,2.77
2023-02-19T05:09:54.456Z,2.75
2023-02-19T05:12:23.305Z,2.70
2023-02-19T05:14:50.809Z,2.68
2023-02-19T05:17:18.310Z,2.59
2023-02-19T05:19:45.866Z,2.58
2023-02-19T05:22:13.377Z,2.64
2023-02-19T05:24:40.862Z,2.57
2023-02-19T05:27:08.459Z,2.59
2023-02-19T05:29:37.376Z,2.64
2023-02-19T05:32:04.947Z,2.62
2023-02-19T05:34:32.556Z,2.64
2023-02-19T05:37:00.097Z,2.58
2023-02-19T05:39:27.827Z,2.49
2023-02-19T05:41:55.347Z,2.48
2023-02-19T05:44:22.917Z,2.50
2023-02-19T05:46:51.739Z,2.45
2023-02-19T05:49:19.590Z,2.46
2023-02-19T05:51:50.195Z,2.41
2023-02-19T05:54:17.753Z,2.38
2023-02-19T05:56:45.327Z,2.36
2023-02-19T05:59:17.036Z,2.27
2023-02-19T06:01:45.645Z,2.20
2023-02-19T06:04:15.479Z,2.21
2023-02-19T06:06:43.505Z,2.13
2023-02-19T06:09:11.770Z,2.16
2023-02-19T06:11:39.879Z,2.15
2023-02-19T06:14:07.912Z,2.16
2023-02-19T06:16:35.477Z,2.09
2023-02-19T06:19:04.344Z,2.15
2023-02-19T06:21:33.216Z,2.11
2023-02-19T06:24:05.586Z,2.10
2023-02-19T06:26:33.143Z,2.19
2023-02-19T06:29:00.775Z,2.11
2023-02-19T06:31:28.532Z,2.10
2023-02-19T06:33:56.146Z,2.13
2023-02-19T06:36:24.518Z,2.20
2023-02-19T06:38:53.407Z,2.24
2023-02-19T06:41:20.952Z,2.22
2023-02-19T06:43:48.514Z,2.24
2023-02-19T06:46:16.175Z,2.21
2023-02-19T06:48:45.797Z,2.20
2023-02-19T06:51:14.053Z,2.23
2023-02-19T06:53:41.641Z,2.33
2023-02-19T06:56:24.583Z,2.25
2023-02-19T06:58:52.964Z,2.23
2023-02-19T07:01:20.582Z,2.27
2023-02-19T07:03:48.303Z,2.22
2023-02-19T07:06:16.004Z,2.27
2023-02-19T07:08:43.542Z,2.27
2023-02-19T07:11:12.663Z,2.22
2023-02-19T07:13:40.332Z,2.21
2023-02-19T07:16:10.879Z,2.23
2023-02-19T07:18:39.629Z,2.22
2023-02-19T07:21:09.093Z,2.16
2023-02-19T07:23:36.974Z,2.20
2023-02-19T07:26:04.897Z,2.28
2023-02-19T07:28:33.747Z,2.37
2023-02-19T07:31:02.271Z,2.39
2023-02-19T07:33:30.063Z,2.46
2023-02-19T07:35:58.180Z,2.51
2023-02-19T07:38:27.328Z,2.55
2023-02-19T07:40:56.229Z,2.61
2023-02-19T07:43:24.549Z,2.59
2023-02-19T07:45:55.122Z,2.65
2023-02-19T07:48:22.792Z,2.66
2023-02-19T07:50:53.765Z,2.69
2023-02-19T07:53:22.581Z,2.70
2023-02-19T07:55:50.528Z,2.64
2023-02-19T07:58:18.559Z,2.67
2023-02-19T08:00:46.404Z,2.62
2023-02-19T08:03:14.326Z,2.56
2023-02-19T08:05:43.392Z,2.63
2023-02-19T08:08:13.400Z,2.63
2023-02-19T08:10:59.231Z,2.65
2023-02-19T08:13:28.368Z,2.74
2023-02-19T08:16:10.844Z,2.92
2023-02-19T08:18:45.457Z,2.93
2023-02-19T08:21:13.314Z,3.02
2023-02-19T08:23:41.384Z,3.03
2023-02-19T08:26:09.788Z,3.07
2023-02-19T08:28:37.458Z,3.21
2023-02-19T08:31:07.640Z,3.27
2023-02-19T08:33:36.079Z,3.29
2023-02-19T08:36:07.397Z,3.36
2023-02-19T08:38:36.365Z,3.39
2023-02-19T08:41:06.276Z,3.48
2023-02-19T08:43:34.074Z,3.55
2023-02-19T08:46:02.112Z,3.62
2023-02-19T08:48:29.930Z,3.75
2023-02-19T08:50:58.307Z,3.86
2023-02-19T08:53:27.728Z,3.93
2023-02-19T08:55:55.250Z,3.94
2023-02-19T08:58:23.966Z,4.02
2023-02-19T09:00:51.530Z,4.06
2023-02-19T09:03:19.203Z,4.16
2023-02-19T09:05:47.926Z,4.22
2023-02-19T09:08:15.794Z,4.34
2023-02-19T09:10:44.655Z,4.39
2023-02-19T09:13:12.187Z,4.40
2023-02-19T09:15:39.998Z,4.40
2023-02-19T09:18:07.571Z,4.52
2023-02-19T09:20:35.125Z,4.56
2023-02-19T09:23:02.629Z,4.66
2023-02-19T09:25:30.154Z,4.76
2023-02-19T09:27:59.040Z,4.75
2023-02-19T09:30:26.622Z,4.82
2023-02-19T09:32:54.154Z,4.95
2023-02-19T09:35:21.689Z,5.05
2023-02-19T09:37:49.246Z,5.04
2023-02-19T09:40:21.460Z,5.08
2023-02-19T09:42:51.319Z,5.25
2023-02-19T09:45:25.014Z,5.40
2023-02-19T09:47:55.918Z,5.53
2023-02-19T09:50:29.620Z,5.59
2023-02-19T09:52:59.568Z,5.75
2023-02-19T09:55:32.327Z,5.84
2023-02-19T09:58:03.204Z,5.83
2023-02-19T10:00:35.350Z,5.77
2023-02-19T10:03:06.275Z,5.77
2023-02-19T10:05:35.006Z,5.76
2023-02-19T10:08:07.035Z,5.90
2023-02-19T10:10:37.042Z,5.86
2023-02-19T10:13:18.978Z,6.10
2023-02-19T10:15:50.837Z,6.29
2023-02-19T10:18:21.530Z,6.24
2023-02-19T10:20:50.641Z,6.39
2023-02-19T10:23:18.808Z,6.40
2023-02-19T10:25:50.021Z,6.35
2023-02-19T10:28:20.133Z,6.25
2023-02-19T10:30:53.837Z,6.22
2023-02-19T10:33:22.046Z,6.23
2023-02-19T10:35:56.131Z,6.25
2023-02-19T10:38:28.088Z,6.40
2023-02-19T10:41:03.169Z,6.37
2023-02-19T10:43:33.979Z,6.40
2023-02-19T10:46:07.377Z,6.40
2023-02-19T10:48:38.433Z,6.20
2023-02-19T10:51:09.724Z,6.35
2023-02-19T10:53:42.672Z,6.42
2023-02-19T10:56:14.140Z,6.54
2023-02-19T10:58:44.621Z,6.66
2023-02-19T11:01:20.403Z,6.78
2023-02-19T11:03:49.672Z,6.90
2023-02-19T11:06:20.143Z,6.67
2023-02-19T11:08:54.895Z,6.63
2023-02-19T11:11:25.574Z,6.58
2023-02-19T11:13:54.450Z,6.64
2023-02-19T11:16:23.928Z,6.70
2023-02-19T11:18:57.369Z,6.77
2023-02-19T11:21:32.759Z,6.91
2023-02-19T11:24:01.443Z,7.01
2023-02-19T11:26:35.053Z,7.16
2023-02-19T11:29:13.769Z,7.34
2023-02-19T11:31:42.705Z,7.35
2023-02-19T11:34:29.812Z,7.11
2023-02-19T11:37:11.911Z,6.98
2023-02-19T11:39:43.034Z,7.23
2023-02-19T11:42:33.181Z,7.18
2023-02-19T11:45:25.441Z,7.31
2023-02-19T11:48:13.308Z,7.43
2023-02-19T11:50:51.872Z,7.58
2023-02-19T11:53:26.265Z,7.66
2023-02-19T11:56:08.970Z,7.70
2023-02-19T11:59:01.382Z,7.71
2023-02-19T12:01:57.133Z,7.68
2023-02-19T12:04:57.368Z,7.75
2023-02-19T12:07:41.287Z,7.69
2023-02-19T12:10:18.184Z,7.42
2023-02-19T12:12:57.752Z,7.42
2023-02-19T12:15:33.622Z,7.33
2023-02-19T12:18:21.250Z,7.38
2023-02-19T12:21:04.545Z,7.49
2023-02-19T12:23:47.036Z,7.52
2023-02-19T12:26:23.855Z,7.56
2023-02-19T12:29:14.098Z,7.71
2023-02-19T12:32:16.800Z,7.88
2023-02-19T12:35:11.910Z,8.02
2023-02-19T12:37:49.743Z,8.21
2023-02-19T12:40:29.341Z,8.32
2023-02-19T12:43:09.094Z,8.36
2023-02-19T12:45:42.284Z,8.40
2023-02-19T12:48:18.505Z,8.39
2023-02-19T12:50:50.317Z,8.54
2023-02-19T12:53:30.005Z,8.66
2023-02-19T12:55:58.618Z,8.42
2023-02-19T12:58:33.036Z,8.31
2023-02-19T13:01:01.246Z,8.24
2023-02-19T13:03:33.316Z,7.94
2023-02-19T13:06:09.426Z,8.09
2023-02-19T13:09:03.571Z,8.23
2023-02-19T13:11:36.559Z,8.37
2023-02-19T13:14:10.495Z,8.37
2023-02-19T13:16:43.087Z,8.29
2023-02-19T13:19:11.518Z,8.07
2023-02-19T13:22:08.798Z,7.83
2023-02-19T13:24:41.795Z,7.74
2023-02-19T13:27:29.790Z,7.65
2023-02-19T13:30:09.090Z,7.55
2023-02-19T13:32:54.042Z,7.35
2023-02-19T13:35:36.500Z,7.28
2023-02-19T13:40:43.722Z,7.37
2023-02-19T13:43:26.561Z,7.30
2023-02-19T13:45:58.747Z,7.29
2023-02-19T13:48:29.530Z,7.30
2023-02-19T13:51:30.336Z,7.27
2023-02-19T13:54:01.859Z,7.25
2023-02-19T13:56:41.513Z,7.21
2023-02-19T13:59:37.125Z,7.34
2023-02-19T14:02:13.389Z,7.49
2023-02-19T14:04:51.653Z,7.52
2023-02-19T14:08:00.561Z,7.43
2023-02-19T14:11:02.141Z,7.26
2023-02-19T14:14:10.967Z,7.16
2023-02-19T14:17:01.108Z,7.01
2023-02-19T14:19:47.652Z,6.99
2023-02-19T14:23:04.000Z,6.97
2023-02-19T14:25:52.003Z,7.14
2023-02-19T14:28:33.468Z,7.20
2023-02-19T14:31:04.401Z,7.47
2023-02-19T14:33:34.992Z,7.63
2023-02-19T14:36:06.637Z,7.79
2023-02-19T14:38:39.333Z,7.81
2023-02-19T14:41:08.714Z,8.02
2023-02-19T14:43:38.364Z,8.04
2023-02-19T14:46:13.785Z,7.62
2023-02-19T14:48:46.125Z,7.37
2023-02-19T14:51:17.865Z,7.21
2023-02-19T14:53:46.441Z,7.22
2023-02-19T14:56:22.319Z,7.28
2023-02-19T14:59:08.944Z,7.16
2023-02-19T15:01:36.763Z,7.18
2023-02-19T15:04:06.554Z,7.22
2023-02-19T15:06:36.563Z,7.07
2023-02-19T15:09:07.557Z,7.06
2023-02-19T15:11:36.286Z,7.12
2023-02-19T15:14:06.494Z,7.16
2023-02-19T15:16:36.544Z,7.27
2023-02-19T15:19:08.793Z,7.36
2023-02-19T15:21:39.940Z,7.19
2023-02-19T15:24:08.243Z,7.09
2023-02-19T15:26:37.747Z,6.95
2023-02-19T15:29:11.734Z,7.05
2023-02-19T15:31:45.860Z,6.99
2023-02-19T15:34:19.874Z,7.03
2023-02-19T15:36:48.355Z,6.87
2023-02-19T15:39:21.624Z,6.72
2023-02-19T15:42:00.299Z,6.64
2023-02-19T15:44:35.017Z,6.63
2023-02-19T15:47:09.645Z,6.54
2023-02-19T15:49:45.429Z,6.45
2023-02-19T15:52:22.222Z,6.41
2023-02-19T15:54:56.207Z,6.23
2023-02-19T15:57:31.094Z,6.05
2023-02-19T16:00:03.819Z,6.13
2023-02-19T16:02:41.073Z,6.14
2023-02-19T16:05:15.923Z,6.09
2023-02-19T16:07:43.898Z,6.08
2023-02-19T16:10:21.757Z,6.08
2023-02-19T16:12:59.775Z,5.99
2023-02-19T16:15:28.861Z,5.99
2023-02-19T16:17:57.567Z,5.89
2023-02-19T16:20:28.995Z,5.87
2023-02-19T16:23:00.728Z,5.89
2023-02-19T16:25:34.431Z,5.90
2023-02-19T16:28:11.600Z,5.83
2023-02-19T16:30:39.774Z,5.72
2023-02-19T16:33:34.701Z,5.70
2023-02-19T16:39:19.452Z,5.68
2023-02-19T16:42:17.573Z,5.67
2023-02-19T16:44:46.049Z,5.62
2023-02-19T16:47:28.604Z,5.62
2023-02-19T16:49:56.629Z,5.58
2023-02-19T16:52:24.167Z,5.50
2023-02-19T16:54:53.089Z,5.49
2023-02-19T16:57:21.434Z,5.49
2023-02-19T16:59:49.064Z,5.43
2023-02-19T17:02:22.113Z,5.40
2023-02-19T17:04:51.741Z,5.41
2023-02-19T17:07:19.588Z,5.40
2023-02-19T17:09:47.418Z,5.34
2023-02-19T17:12:17.587Z,5.36
2023-02-19T17:14:45.737Z,5.25
2023-02-19T17:17:13.329Z,5.29
2023-02-19T17:19:40.841Z,5.22
2023-02-19T17:22:08.751Z,5.19
2023-02-19T17:24:36.262Z,5.16
2023-02-19T17:27:03.837Z,5.19
2023-02-19T17:29:33.872Z,5.18
2023-02-19T17:32:01.839Z,5.20
2023-02-19T17:34:29.485Z,5.20
2023-02-19T17:36:57.552Z,5.21
2023-02-19T17:39:25.348Z,5.19
2023-02-19T17:41:52.851Z,5.20
2023-02-19T17:44:20.409Z,5.13
2023-02-19T17:46:49.347Z,5.13
2023-02-19T17:49:16.917Z,5.20
2023-02-19T17:51:44.453Z,5.22
2023-02-19T17:54:12.035Z,5.14
2023-02-19T17:56:43.097Z,5.14
2023-02-19T17:59:11.372Z,5.14
2023-02-19T18:01:39.070Z,5.10
2023-02-19T18:04:08.382Z,5.17
2023-02-19T18:06:35.956Z,5.14
2023-02-19T18:09:03.504Z,5.14
2023-02-19T18:11:31.128Z,5.15
2023-02-19T18:13:59.498Z,5.15
2023-02-19T18:16:27.026Z,5.10
2023-02-19T18:18:54.950Z,5.09
2023-02-19T18:21:24.702Z,5.06
2023-02-19T18:23:52.252Z,5.11
2023-02-19T18:26:21.090Z,5.07
2023-02-19T18:28:48.649Z,5.13
2023-02-19T18:31:16.396Z,5.13
2023-02-19T18:33:44.106Z,5.07
2023-02-19T18:36:12.434Z,5.08
2023-02-19T18:38:42.058Z,5.08
2023-02-19T18:41:19.550Z,5.10
2023-02-19T18:43:47.879Z,5.08
2023-02-19T18:46:15.765Z,5.09
2023-02-19T18:48:43.340Z,5.20
2023-02-19T18:51:11.903Z,5.18
2023-02-19T18:53:42.924Z,5.20
2023-02-19T18:56:10.462Z,5.16
2023-02-19T18:58:38.020Z,5.19
2023-02-19T19:01:05.898Z,5.18
2023-02-19T19:03:33.626Z,5.22
2023-02-19T19:06:01.214Z,5.26
2023-02-19T19:08:30.678Z,5.20
2023-02-19T19:10:59.681Z,5.26
2023-02-19T19:13:27.242Z,5.24
2023-02-19T19:15:54.763Z,5.18
2023-02-19T19:18:22.537Z,5.21
2023-02-19T19:20:50.092Z,5.19
2023-02-19T19:23:17.609Z,5.12
2023-02-19T19:25:45.202Z,5.06
2023-02-19T19:28:14.114Z,5.03
2023-02-19T19:30:42.291Z,5.02
2023-02-19T19:33:09.880Z,4.94
2023-02-19T19:35:37.579Z,5.02
2023-02-19T19:38:05.168Z,5.00
2023-02-19T19:40:32.721Z,4.98
2023-02-19T19:43:00.215Z,4.98
2023-02-19T19:45:29.113Z,4.86
2023-02-19T19:47:56.699Z,4.73
2023-02-19T19:50:24.238Z,4.72
2023-02-19T19:52:52.164Z,4.67
2023-02-19T19:55:21.340Z,4.68
2023-02-19T19:57:49.454Z,4.66
2023-02-19T20:00:19.029Z,4.60
2023-02-19T20:02:47.957Z,4.60
2023-02-19T20:05:16.762Z,4.63
2023-02-19T20:07:44.485Z,4.61
2023-02-19T20:10:12.963Z,4.59
2023-02-19T20:12:40.747Z,4.52
2023-02-19T20:15:09.477Z,4.58
2023-02-19T20:17:37.580Z,4.51
2023-02-19T20:20:07.847Z,4.57
2023-02-19T20:22:36.382Z,4.59
2023-02-19T20:25:04.026Z,4.64
2023-02-19T20:27:31.600Z,4.61
2023-02-19T20:29:59.167Z,4.64
2023-02-19T20:32:26.728Z,4.56
2023-02-19T20:34:54.564Z,4.58
2023-02-19T20:37:23.572Z,4.60
2023-02-19T20:39:51.236Z,4.66
2023-02-19T20:42:19.297Z,4.57
2023-02-19T20:44:46.932Z,4.55
2023-02-19T20:47:14.486Z,4.54
2023-02-19T20:49:45.473Z,4.54
2023-02-19T20:52:15.488Z,4.56
2023-02-19T20:54:44.842Z,4.51
2023-02-19T20:57:13.659Z,4.50
2023-02-19T20:59:41.531Z,4.41
2023-02-19T21:02:14.802Z,4.45
2023-02-19T21:04:42.434Z,4.48
2023-02-19T21:07:09.992Z,4.45
2023-02-19T21:09:37.564Z,4.52
2023-02-19T21:12:06.882Z,4.53
2023-02-19T21:14:34.565Z,4.55
2023-02-19T21:17:02.202Z,4.55
2023-02-19T21:19:29.798Z,4.49
2023-02-19T21:21:57.367Z,4.49
2023-02-19T21:24:25.080Z,4.56
2023-02-19T21:26:52.697Z,4.46
2023-02-19T21:29:22.690Z,4.57
2023-02-19T21:31:54.882Z,4.47
2023-02-19T21:34:24.541Z,4.43
2023-02-19T21:36:52.202Z,4.57
2023-02-19T21:39:21.824Z,4.61
2023-02-19T21:41:49.839Z,4.56
2023-02-19T21:44:18.053Z,4.55
2023-02-19T21:46:46.977Z,4.48
2023-02-19T21:49:14.525Z,4.52
2023-02-19T21:51:44.121Z,4.69
2023-02-19T21:54:16.473Z,4.72
2023-02-19T21:56:44.153Z,4.62
2023-02-19T21:59:11.877Z,4.64
2023-02-19T22:01:40.300Z,4.66
2023-02-19T22:04:10.615Z,4.70
2023-02-19T22:06:39.106Z,4.83
2023-02-19T22:09:07.089Z,4.68
2023-02-19T22:11:34.846Z,4.73
2023-02-19T22:14:02.721Z,4.72
2023-02-19T22:16:30.298Z,4.72
2023-02-19T22:18:59.630Z,4.75
2023-02-19T22:21:32.302Z,4.71
2023-02-19T22:24:00.350Z,4.71
2023-02-19T22:26:30.819Z,4.70
2023-02-19T22:28:59.517Z,4.78
2023-02-19T22:31:28.460Z,4.77
2023-02-19T22:33:57.362Z,4.72
2023-02-19T22:36:27.672Z,4.80
2023-02-19T22:38:56.562Z,4.83
2023-02-19T22:41:24.636Z,4.83
2023-02-19T22:43:55.650Z,4.76
2023-02-19T22:46:25.784Z,4.80
2023-02-19T22:48:53.448Z,4.80
2023-02-19T22:51:23.514Z,4.92
2023-02-19T22:53:52.841Z,4.89
2023-02-19T22:56:24.312Z,4.89
2023-02-19T22:58:51.971Z,4.92
2023-02-19T23:01:20.421Z,4.91
2023-02-19T23:03:50.079Z,4.91
2023-02-19T23:06:19.005Z,4.93
2023-02-19T23:08:46.595Z,4.92
2023-02-19T23:11:14.758Z,4.94
2023-02-19T23:13:43.819Z,4.98
2023-02-19T23:16:12.094Z,4.88
2023-02-19T23:18:39.788Z,4.89
2023-02-19T23:21:07.499Z,4.83
2023-02-19T23:23:35.027Z,4.90
2023-02-19T23:26:03.314Z,4.84
2023-02-19T23:28:30.878Z,4.80
2023-02-19T23:30:59.966Z,4.87
2023-02-19T23:33:29.397Z,4.85
2023-02-19T23:35:57.107Z,4.85
2023-02-19T23:38:24.729Z,4.90
2023-02-19T23:40:52.320Z,4.85
2023-02-19T23:43:20.950Z,4.92
2023-02-19T23:45:48.551Z,4.98
2023-02-19T23:48:17.698Z,4.97
2023-02-19T23:50:45.262Z,4.99
2023-02-19T23:53:12.826Z,4.99
2023-02-19T23:55:40.378Z,5.09
2023-02-19T23:58:07.939Z,5.02
